Ana Sayfa
METAR-TAF:

METAR-TAF

Havaalanları :

O'Neill Municipal Airport (John L. Baker Field)

O'Neill, Nebraska, Amerika Birleşik Devletleri

Enlem: 42-28N, Boylam: 098-41W, yükseklik: 619 m

Güncel hava durumu gözlemi

Rapor saat 05:15 UTC de 16 dakika önce yapıldı.
Rüzgar kuzey/kuzeybatıdan 13 kt
Sıcaklık 4°C
Nem 87%
Basınç 1020 hPa
Görüş mesafesi: 4.8 km
1000 ft yükseklikte parçalı çok bulutlu
1500 ft yükseklikte çok bulutlu
bilinmiyor

METAR: KONL 180515Z AUTO 34013KT 3SM UP BKN010 OVC015 04/02 A3013 RMK AO2 P0007 T00360023

Saat: 00:31 (05:31 UTC)


TAF: eksik

4.000'den fazla havaalanı için hava durumu gözlemleri ve tahminleri (METAR ve TAF raporları).

Kullanılabilir istasyonlar harita üzerinde sarı ve kırmızı noktalarla gösterilir.

İstasyonun adını görmek için fareyi noktanın üzerinde gezdirin.

Sonrasında hava gözlem ve tahminlerini görmek için tıklayın.

Haritayı değiştirmek için: yaklaştırmak için siyah artı işaretli yeşil düğmeye ve uzaklaştırmak için de eksi işaretli düğmeye hızla tıklayın; bitişik haritalar için yeşil okları kullanın.


METAR-TAF: